sensor_id;sensor_type;location;lat;lon;timestamp;P1;durP1;ratioP1;P2;durP2;ratioP2
38879;SDS011;25887;30.194;-97.880;2023-11-19T00:02:12;6.93;;;4.07;;
38879;SDS011;25887;30.194;-97.880;2023-11-19T00:04:38;8.57;;;4.05;;
38879;SDS011;25887;30.194;-97.880;2023-11-19T00:07:05;8.15;;;4.10;;
38879;SDS011;25887;30.194;-97.880;2023-11-19T00:09:36;7.45;;;4.30;;
38879;SDS011;25887;30.194;-97.880;2023-11-19T00:12:03;8.57;;;4.13;;
38879;SDS011;25887;30.194;-97.880;2023-11-19T00:14:30;6.75;;;4.13;;
38879;SDS011;25887;30.194;-97.880;2023-11-19T00:16:56;6.95;;;4.15;;
38879;SDS011;25887;30.194;-97.880;2023-11-19T00:19:22;9.95;;;4.35;;
38879;SDS011;25887;30.194;-97.880;2023-11-19T00:21:48;7.70;;;4.45;;
38879;SDS011;25887;30.194;-97.880;2023-11-19T00:24:23;9.80;;;4.60;;
38879;SDS011;25887;30.194;-97.880;2023-11-19T00:26:49;8.63;;;4.85;;
38879;SDS011;25887;30.194;-97.880;2023-11-19T00:29:15;6.53;;;3.45;;
38879;SDS011;25887;30.194;-97.880;2023-11-19T00:31:44;7.32;;;4.00;;
38879;SDS011;25887;30.194;-97.880;2023-11-19T00:34:10;9.25;;;4.30;;
38879;SDS011;25887;30.194;-97.880;2023-11-19T00:36:36;10.05;;;4.15;;
38879;SDS011;25887;30.194;-97.880;2023-11-19T00:39:02;7.78;;;4.47;;
38879;SDS011;25887;30.194;-97.880;2023-11-19T00:41:28;7.90;;;3.97;;
38879;SDS011;25887;30.194;-97.880;2023-11-19T00:43:54;9.30;;;4.55;;
38879;SDS011;25887;30.194;-97.880;2023-11-19T00:46:21;7.00;;;3.88;;
38879;SDS011;25887;30.194;-97.880;2023-11-19T00:48:47;8.18;;;4.30;;
38879;SDS011;25887;30.194;-97.880;2023-11-19T00:51:13;6.88;;;3.80;;
38879;SDS011;25887;30.194;-97.880;2023-11-19T00:53:39;9.32;;;4.35;;
38879;SDS011;25887;30.194;-97.880;2023-11-19T00:56:06;6.13;;;3.92;;
38879;SDS011;25887;30.194;-97.880;2023-11-19T00:58:32;4.97;;;3.65;;
38879;SDS011;25887;30.194;-97.880;2023-11-19T01:00:59;8.23;;;4.47;;
38879;SDS011;25887;30.194;-97.880;2023-11-19T01:03:25;7.43;;;4.43;;
38879;SDS011;25887;30.194;-97.880;2023-11-19T01:05:51;10.07;;;4.10;;
38879;SDS011;25887;30.194;-97.880;2023-11-19T01:08:17;9.73;;;4.60;;
38879;SDS011;25887;30.194;-97.880;2023-11-19T01:10:44;13.25;;;5.03;;
38879;SDS011;25887;30.194;-97.880;2023-11-19T01:13:10;9.80;;;4.40;;
38879;SDS011;25887;30.194;-97.880;2023-11-19T01:15:36;9.15;;;3.97;;
38879;SDS011;25887;30.194;-97.880;2023-11-19T01:18:02;9.13;;;4.40;;
38879;SDS011;25887;30.194;-97.880;2023-11-19T01:20:30;7.95;;;4.07;;
38879;SDS011;25887;30.194;-97.880;2023-11-19T01:22:56;8.25;;;3.92;;
38879;SDS011;25887;30.194;-97.880;2023-11-19T01:25:22;7.93;;;4.75;;
38879;SDS011;25887;30.194;-97.880;2023-11-19T01:27:48;10.48;;;5.13;;
38879;SDS011;25887;30.194;-97.880;2023-11-19T01:30:15;7.20;;;4.35;;
38879;SDS011;25887;30.194;-97.880;2023-11-19T01:32:41;9.05;;;4.90;;
38879;SDS011;25887;30.194;-97.880;2023-11-19T01:35:08;11.18;;;4.53;;
38879;SDS011;25887;30.194;-97.880;2023-11-19T01:37:34;7.97;;;4.15;;
38879;SDS011;25887;30.194;-97.880;2023-11-19T01:40:01;9.15;;;4.43;;
38879;SDS011;25887;30.194;-97.880;2023-11-19T01:42:39;8.65;;;4.32;;
38879;SDS011;25887;30.194;-97.880;2023-11-19T01:45:06;7.95;;;3.95;;
38879;SDS011;25887;30.194;-97.880;2023-11-19T01:47:34;6.85;;;3.67;;
38879;SDS011;25887;30.194;-97.880;2023-11-19T01:50:02;7.38;;;3.58;;
38879;SDS011;25887;30.194;-97.880;2023-11-19T01:52:32;7.07;;;3.95;;
38879;SDS011;25887;30.194;-97.880;2023-11-19T01:57:45;8.25;;;3.97;;
38879;SDS011;25887;30.194;-97.880;2023-11-19T02:00:13;9.30;;;4.15;;
38879;SDS011;25887;30.194;-97.880;2023-11-19T02:02:43;7.28;;;3.67;;
38879;SDS011;25887;30.194;-97.880;2023-11-19T02:05:10;8.40;;;4.43;;
38879;SDS011;25887;30.194;-97.880;2023-11-19T02:07:40;7.80;;;3.65;;
38879;SDS011;25887;30.194;-97.880;2023-11-19T02:10:06;9.95;;;3.85;;
38879;SDS011;25887;30.194;-97.880;2023-11-19T02:12:56;12.85;;;3.80;;
38879;SDS011;25887;30.194;-97.880;2023-11-19T02:15:23;7.63;;;4.35;;
38879;SDS011;25887;30.194;-97.880;2023-11-19T02:17:52;8.63;;;4.30;;
38879;SDS011;25887;30.194;-97.880;2023-11-19T02:20:18;8.05;;;3.95;;
38879;SDS011;25887;30.194;-97.880;2023-11-19T02:22:51;11.52;;;4.15;;
38879;SDS011;25887;30.194;-97.880;2023-11-19T02:25:22;10.13;;;3.88;;
38879;SDS011;25887;30.194;-97.880;2023-11-19T02:28:16;7.88;;;3.67;;
38879;SDS011;25887;30.194;-97.880;2023-11-19T02:30:47;10.60;;;4.45;;
38879;SDS011;25887;30.194;-97.880;2023-11-19T02:33:13;7.72;;;3.75;;
38879;SDS011;25887;30.194;-97.880;2023-11-19T02:35:40;7.88;;;4.30;;
38879;SDS011;25887;30.194;-97.880;2023-11-19T02:38:06;11.32;;;5.47;;
38879;SDS011;25887;30.194;-97.880;2023-11-19T02:40:33;9.23;;;4.97;;
38879;SDS011;25887;30.194;-97.880;2023-11-19T02:42:59;12.30;;;5.03;;
38879;SDS011;25887;30.194;-97.880;2023-11-19T02:45:25;9.35;;;4.10;;
38879;SDS011;25887;30.194;-97.880;2023-11-19T02:47:53;8.55;;;4.32;;
38879;SDS011;25887;30.194;-97.880;2023-11-19T02:50:23;7.65;;;4.30;;
38879;SDS011;25887;30.194;-97.880;2023-11-19T02:52:52;8.35;;;3.83;;
38879;SDS011;25887;30.194;-97.880;2023-11-19T02:55:24;8.40;;;4.80;;
38879;SDS011;25887;30.194;-97.880;2023-11-19T02:57:53;8.07;;;4.32;;
38879;SDS011;25887;30.194;-97.880;2023-11-19T03:00:22;10.45;;;4.82;;
38879;SDS011;25887;30.194;-97.880;2023-11-19T03:03:03;8.02;;;4.70;;
38879;SDS011;25887;30.194;-97.880;2023-11-19T03:05:43;9.23;;;4.28;;
38879;SDS011;25887;30.194;-97.880;2023-11-19T03:08:09;9.38;;;4.38;;
38879;SDS011;25887;30.194;-97.880;2023-11-19T03:10:36;9.80;;;4.80;;
38879;SDS011;25887;30.194;-97.880;2023-11-19T03:13:02;8.85;;;4.82;;
38879;SDS011;25887;30.194;-97.880;2023-11-19T03:15:28;8.25;;;4.43;;
38879;SDS011;25887;30.194;-97.880;2023-11-19T03:17:54;9.52;;;4.65;;
38879;SDS011;25887;30.194;-97.880;2023-11-19T03:20:20;9.93;;;4.78;;
38879;SDS011;25887;30.194;-97.880;2023-11-19T03:22:48;11.10;;;4.28;;
38879;SDS011;25887;30.194;-97.880;2023-11-19T03:25:16;10.02;;;4.50;;
38879;SDS011;25887;30.194;-97.880;2023-11-19T03:27:43;8.82;;;4.13;;
38879;SDS011;25887;30.194;-97.880;2023-11-19T03:30:09;11.32;;;4.35;;
38879;SDS011;25887;30.194;-97.880;2023-11-19T03:32:36;10.15;;;4.82;;
38879;SDS011;25887;30.194;-97.880;2023-11-19T03:35:04;9.15;;;4.15;;
38879;SDS011;25887;30.194;-97.880;2023-11-19T03:37:36;7.78;;;4.25;;
38879;SDS011;25887;30.194;-97.880;2023-11-19T03:40:02;10.48;;;5.22;;
38879;SDS011;25887;30.194;-97.880;2023-11-19T03:42:38;13.40;;;4.28;;
38879;SDS011;25887;30.194;-97.880;2023-11-19T03:45:08;10.27;;;4.93;;
38879;SDS011;25887;30.194;-97.880;2023-11-19T03:47:34;9.38;;;4.65;;
38879;SDS011;25887;30.194;-97.880;2023-11-19T03:50:01;9.00;;;4.43;;
38879;SDS011;25887;30.194;-97.880;2023-11-19T03:52:28;10.07;;;4.47;;
38879;SDS011;25887;30.194;-97.880;2023-11-19T03:54:55;9.13;;;4.60;;
38879;SDS011;25887;30.194;-97.880;2023-11-19T03:57:22;9.77;;;4.70;;
38879;SDS011;25887;30.194;-97.880;2023-11-19T03:59:53;8.32;;;4.28;;
38879;SDS011;25887;30.194;-97.880;2023-11-19T04:02:20;11.25;;;5.00;;
38879;SDS011;25887;30.194;-97.880;2023-11-19T04:04:47;10.00;;;5.03;;
38879;SDS011;25887;30.194;-97.880;2023-11-19T04:07:14;11.80;;;4.80;;
38879;SDS011;25887;30.194;-97.880;2023-11-19T04:09:40;10.13;;;4.63;;
38879;SDS011;25887;30.194;-97.880;2023-11-19T04:12:06;8.70;;;4.75;;
38879;SDS011;25887;30.194;-97.880;2023-11-19T04:14:33;8.05;;;4.30;;
38879;SDS011;25887;30.194;-97.880;2023-11-19T04:16:59;11.27;;;4.40;;
38879;SDS011;25887;30.194;-97.880;2023-11-19T04:19:25;8.65;;;4.30;;
38879;SDS011;25887;30.194;-97.880;2023-11-19T04:21:52;9.52;;;4.55;;
38879;SDS011;25887;30.194;-97.880;2023-11-19T04:24:18;13.13;;;4.78;;
38879;SDS011;25887;30.194;-97.880;2023-11-19T04:26:46;9.27;;;4.43;;
38879;SDS011;25887;30.194;-97.880;2023-11-19T04:29:32;8.07;;;4.10;;
38879;SDS011;25887;30.194;-97.880;2023-11-19T04:31:59;11.90;;;4.72;;
38879;SDS011;25887;30.194;-97.880;2023-11-19T04:34:26;10.57;;;4.75;;
38879;SDS011;25887;30.194;-97.880;2023-11-19T04:36:53;6.82;;;3.95;;
38879;SDS011;25887;30.194;-97.880;2023-11-19T04:39:19;8.50;;;4.60;;
38879;SDS011;25887;30.194;-97.880;2023-11-19T04:41:48;9.57;;;4.80;;
38879;SDS011;25887;30.194;-97.880;2023-11-19T04:44:18;10.27;;;5.18;;
38879;SDS011;25887;30.194;-97.880;2023-11-19T04:46:45;9.55;;;5.05;;
38879;SDS011;25887;30.194;-97.880;2023-11-19T04:49:12;9.25;;;4.57;;
38879;SDS011;25887;30.194;-97.880;2023-11-19T04:51:40;9.13;;;4.47;;
38879;SDS011;25887;30.194;-97.880;2023-11-19T04:54:07;9.35;;;4.43;;
38879;SDS011;25887;30.194;-97.880;2023-11-19T04:56:34;7.70;;;4.50;;
38879;SDS011;25887;30.194;-97.880;2023-11-19T04:59:05;9.57;;;4.43;;
38879;SDS011;25887;30.194;-97.880;2023-11-19T05:01:35;10.07;;;4.65;;
38879;SDS011;25887;30.194;-97.880;2023-11-19T05:04:01;9.00;;;4.80;;
38879;SDS011;25887;30.194;-97.880;2023-11-19T05:06:31;9.95;;;4.78;;
38879;SDS011;25887;30.194;-97.880;2023-11-19T05:08:58;10.35;;;4.60;;
38879;SDS011;25887;30.194;-97.880;2023-11-19T05:11:33;7.40;;;4.47;;
38879;SDS011;25887;30.194;-97.880;2023-11-19T05:14:00;8.10;;;4.53;;
38879;SDS011;25887;30.194;-97.880;2023-11-19T05:16:31;9.48;;;4.78;;
38879;SDS011;25887;30.194;-97.880;2023-11-19T05:18:58;8.95;;;4.45;;
38879;SDS011;25887;30.194;-97.880;2023-11-19T05:21:24;10.20;;;4.97;;
38879;SDS011;25887;30.194;-97.880;2023-11-19T05:23:51;11.52;;;4.32;;
38879;SDS011;25887;30.194;-97.880;2023-11-19T05:26:17;11.38;;;5.38;;
38879;SDS011;25887;30.194;-97.880;2023-11-19T05:28:47;10.45;;;4.38;;
38879;SDS011;25887;30.194;-97.880;2023-11-19T06:33:24;9.43;;;4.90;;
38879;SDS011;25887;30.194;-97.880;2023-11-19T06:35:50;10.68;;;5.22;;
38879;SDS011;25887;30.194;-97.880;2023-11-19T06:38:17;12.90;;;5.07;;
38879;SDS011;25887;30.194;-97.880;2023-11-19T06:40:44;14.48;;;4.82;;
38879;SDS011;25887;30.194;-97.880;2023-11-19T06:43:10;11.55;;;5.35;;
38879;SDS011;25887;30.194;-97.880;2023-11-19T06:45:36;11.35;;;5.43;;
38879;SDS011;25887;30.194;-97.880;2023-11-19T06:48:07;11.73;;;5.20;;
38879;SDS011;25887;30.194;-97.880;2023-11-19T06:53:30;10.95;;;4.82;;
38879;SDS011;25887;30.194;-97.880;2023-11-19T06:55:56;11.43;;;5.05;;
38879;SDS011;25887;30.194;-97.880;2023-11-19T06:58:24;11.48;;;5.25;;
38879;SDS011;25887;30.194;-97.880;2023-11-19T07:00:50;10.88;;;5.35;;
38879;SDS011;25887;30.194;-97.880;2023-11-19T07:03:16;9.50;;;5.13;;
38879;SDS011;25887;30.194;-97.880;2023-11-19T07:05:43;11.32;;;5.32;;
38879;SDS011;25887;30.194;-97.880;2023-11-19T07:08:09;11.00;;;5.88;;
38879;SDS011;25887;30.194;-97.880;2023-11-19T07:10:37;13.88;;;5.57;;
38879;SDS011;25887;30.194;-97.880;2023-11-19T07:13:03;16.35;;;5.95;;
38879;SDS011;25887;30.194;-97.880;2023-11-19T07:15:31;15.55;;;6.20;;
38879;SDS011;25887;30.194;-97.880;2023-11-19T07:17:58;13.15;;;6.18;;
38879;SDS011;25887;30.194;-97.880;2023-11-19T07:20:25;18.48;;;6.53;;
38879;SDS011;25887;30.194;-97.880;2023-11-19T07:23:01;13.50;;;6.18;;
38879;SDS011;25887;30.194;-97.880;2023-11-19T07:25:27;14.68;;;6.75;;
38879;SDS011;25887;30.194;-97.880;2023-11-19T07:27:56;18.83;;;6.68;;
38879;SDS011;25887;30.194;-97.880;2023-11-19T07:30:32;11.40;;;6.03;;
38879;SDS011;25887;30.194;-97.880;2023-11-19T07:33:03;13.63;;;6.07;;
38879;SDS011;25887;30.194;-97.880;2023-11-19T07:35:30;14.82;;;6.50;;
38879;SDS011;25887;30.194;-97.880;2023-11-19T07:37:57;14.57;;;7.18;;
38879;SDS011;25887;30.194;-97.880;2023-11-19T07:40:23;13.77;;;6.13;;
38879;SDS011;25887;30.194;-97.880;2023-11-19T07:42:50;12.30;;;5.90;;
38879;SDS011;25887;30.194;-97.880;2023-11-19T07:45:17;14.20;;;6.53;;
38879;SDS011;25887;30.194;-97.880;2023-11-19T07:47:56;11.05;;;6.20;;
38879;SDS011;25887;30.194;-97.880;2023-11-19T07:51:29;14.55;;;6.18;;
38879;SDS011;25887;30.194;-97.880;2023-11-19T07:54:09;13.85;;;5.63;;
38879;SDS011;25887;30.194;-97.880;2023-11-19T07:59:43;11.07;;;5.10;;
38879;SDS011;25887;30.194;-97.880;2023-11-19T08:59:41;11.93;;;5.95;;
38879;SDS011;25887;30.194;-97.880;2023-11-19T09:02:07;10.43;;;5.60;;
38879;SDS011;25887;30.194;-97.880;2023-11-19T09:04:34;11.75;;;5.18;;
38879;SDS011;25887;30.194;-97.880;2023-11-19T09:07:01;14.50;;;5.50;;
38879;SDS011;25887;30.194;-97.880;2023-11-19T09:09:41;12.52;;;5.57;;
38879;SDS011;25887;30.194;-97.880;2023-11-19T09:12:08;16.40;;;6.10;;
38879;SDS011;25887;30.194;-97.880;2023-11-19T09:14:34;14.90;;;6.43;;
38879;SDS011;25887;30.194;-97.880;2023-11-19T09:17:00;12.32;;;6.07;;
38879;SDS011;25887;30.194;-97.880;2023-11-19T09:19:26;16.45;;;6.78;;
38879;SDS011;25887;30.194;-97.880;2023-11-19T09:21:53;12.90;;;6.03;;
38879;SDS011;25887;30.194;-97.880;2023-11-19T09:24:19;15.23;;;6.63;;
38879;SDS011;25887;30.194;-97.880;2023-11-19T09:26:45;13.73;;;7.03;;
38879;SDS011;25887;30.194;-97.880;2023-11-19T09:29:12;17.30;;;6.97;;
38879;SDS011;25887;30.194;-97.880;2023-11-19T09:31:39;17.55;;;7.10;;
38879;SDS011;25887;30.194;-97.880;2023-11-19T09:34:06;14.40;;;7.15;;
38879;SDS011;25887;30.194;-97.880;2023-11-19T09:36:34;13.15;;;6.18;;
38879;SDS011;25887;30.194;-97.880;2023-11-19T09:39:01;18.20;;;7.68;;
38879;SDS011;25887;30.194;-97.880;2023-11-19T09:41:29;14.60;;;6.75;;
38879;SDS011;25887;30.194;-97.880;2023-11-19T09:43:56;17.55;;;7.20;;
38879;SDS011;25887;30.194;-97.880;2023-11-19T09:46:23;14.75;;;6.88;;
38879;SDS011;25887;30.194;-97.880;2023-11-19T09:48:51;12.85;;;6.30;;
38879;SDS011;25887;30.194;-97.880;2023-11-19T09:51:21;18.15;;;7.05;;
38879;SDS011;25887;30.194;-97.880;2023-11-19T09:56:46;15.30;;;6.43;;
38879;SDS011;25887;30.194;-97.880;2023-11-19T09:59:13;13.43;;;6.40;;
38879;SDS011;25887;30.194;-97.880;2023-11-19T10:01:51;13.63;;;6.70;;
38879;SDS011;25887;30.194;-97.880;2023-11-19T10:04:17;15.02;;;5.93;;
38879;SDS011;25887;30.194;-97.880;2023-11-19T10:06:44;13.05;;;6.40;;
38879;SDS011;25887;30.194;-97.880;2023-11-19T10:09:12;16.50;;;7.28;;
38879;SDS011;25887;30.194;-97.880;2023-11-19T10:14:33;16.20;;;6.30;;
38879;SDS011;25887;30.194;-97.880;2023-11-19T10:17:06;12.30;;;6.32;;
38879;SDS011;25887;30.194;-97.880;2023-11-19T10:19:33;13.48;;;6.20;;
38879;SDS011;25887;30.194;-97.880;2023-11-19T10:22:06;14.10;;;7.15;;
38879;SDS011;25887;30.194;-97.880;2023-11-19T10:24:37;19.63;;;6.63;;
38879;SDS011;25887;30.194;-97.880;2023-11-19T10:27:23;16.05;;;6.97;;
38879;SDS011;25887;30.194;-97.880;2023-11-19T10:29:59;16.77;;;6.65;;
38879;SDS011;25887;30.194;-97.880;2023-11-19T10:32:26;11.38;;;6.47;;
38879;SDS011;25887;30.194;-97.880;2023-11-19T10:34:52;14.30;;;6.78;;
38879;SDS011;25887;30.194;-97.880;2023-11-19T10:37:30;13.32;;;6.65;;
38879;SDS011;25887;30.194;-97.880;2023-11-19T10:40:00;14.00;;;6.28;;
38879;SDS011;25887;30.194;-97.880;2023-11-19T10:42:26;14.00;;;5.88;;
38879;SDS011;25887;30.194;-97.880;2023-11-19T10:44:53;15.38;;;6.57;;
38879;SDS011;25887;30.194;-97.880;2023-11-19T10:47:19;10.70;;;5.57;;
38879;SDS011;25887;30.194;-97.880;2023-11-19T10:49:52;12.90;;;5.65;;
38879;SDS011;25887;30.194;-97.880;2023-11-19T10:52:18;10.73;;;5.68;;
38879;SDS011;25887;30.194;-97.880;2023-11-19T10:54:50;11.15;;;5.82;;
38879;SDS011;25887;30.194;-97.880;2023-11-19T10:57:19;14.07;;;7.00;;
38879;SDS011;25887;30.194;-97.880;2023-11-19T10:59:54;12.63;;;6.30;;
38879;SDS011;25887;30.194;-97.880;2023-11-19T11:02:29;11.73;;;6.32;;
38879;SDS011;25887;30.194;-97.880;2023-11-19T11:07:41;13.05;;;5.63;;
38879;SDS011;25887;30.194;-97.880;2023-11-19T11:10:09;12.18;;;5.82;;
38879;SDS011;25887;30.194;-97.880;2023-11-19T11:12:38;11.50;;;6.00;;
38879;SDS011;25887;30.194;-97.880;2023-11-19T11:15:10;15.93;;;6.90;;
38879;SDS011;25887;30.194;-97.880;2023-11-19T11:17:40;14.23;;;6.95;;
38879;SDS011;25887;30.194;-97.880;2023-11-19T11:20:09;13.18;;;6.05;;
38879;SDS011;25887;30.194;-97.880;2023-11-19T11:22:50;13.65;;;6.35;;
38879;SDS011;25887;30.194;-97.880;2023-11-19T11:39:54;9.75;;;5.28;;
38879;SDS011;25887;30.194;-97.880;2023-11-19T11:45:09;12.82;;;6.30;;
38879;SDS011;25887;30.194;-97.880;2023-11-19T11:50:15;12.25;;;6.05;;
38879;SDS011;25887;30.194;-97.880;2023-11-19T11:53:20;13.38;;;5.95;;
38879;SDS011;25887;30.194;-97.880;2023-11-19T11:55:53;9.95;;;5.55;;
38879;SDS011;25887;30.194;-97.880;2023-11-19T11:58:58;11.98;;;6.40;;
38879;SDS011;25887;30.194;-97.880;2023-11-19T12:01:26;11.35;;;6.38;;
38879;SDS011;25887;30.194;-97.880;2023-11-19T12:03:57;10.38;;;5.85;;
38879;SDS011;25887;30.194;-97.880;2023-11-19T12:06:24;10.95;;;6.10;;
38879;SDS011;25887;30.194;-97.880;2023-11-19T12:08:52;12.45;;;5.70;;
38879;SDS011;25887;30.194;-97.880;2023-11-19T12:11:26;11.55;;;6.07;;
38879;SDS011;25887;30.194;-97.880;2023-11-19T12:13:55;11.98;;;5.80;;
38879;SDS011;25887;30.194;-97.880;2023-11-19T12:19:27;12.50;;;5.70;;
38879;SDS011;25887;30.194;-97.880;2023-11-19T12:22:10;11.63;;;6.28;;
38879;SDS011;25887;30.194;-97.880;2023-11-19T12:28:17;13.15;;;6.15;;
38879;SDS011;25887;30.194;-97.880;2023-11-19T12:30:48;11.38;;;6.35;;
38879;SDS011;25887;30.194;-97.880;2023-11-19T12:33:14;11.73;;;6.15;;
38879;SDS011;25887;30.194;-97.880;2023-11-19T12:35:44;13.25;;;6.72;;
38879;SDS011;25887;30.194;-97.880;2023-11-19T12:43:43;12.05;;;6.15;;
38879;SDS011;25887;30.194;-97.880;2023-11-19T12:46:19;16.88;;;7.20;;
38879;SDS011;25887;30.194;-97.880;2023-11-19T12:48:49;15.50;;;6.80;;
38879;SDS011;25887;30.194;-97.880;2023-11-19T12:51:16;17.98;;;7.55;;
38879;SDS011;25887;30.194;-97.880;2023-11-19T12:53:52;12.30;;;6.60;;
38879;SDS011;25887;30.194;-97.880;2023-11-19T12:56:26;14.40;;;6.93;;
38879;SDS011;25887;30.194;-97.880;2023-11-19T12:58:52;14.43;;;6.95;;
38879;SDS011;25887;30.194;-97.880;2023-11-19T13:01:19;11.82;;;6.43;;
38879;SDS011;25887;30.194;-97.880;2023-11-19T13:03:46;16.67;;;7.93;;
38879;SDS011;25887;30.194;-97.880;2023-11-19T13:06:20;15.23;;;6.97;;
38879;SDS011;25887;30.194;-97.880;2023-11-19T13:09:05;13.80;;;7.25;;
38879;SDS011;25887;30.194;-97.880;2023-11-19T13:11:35;14.63;;;6.55;;
38879;SDS011;25887;30.194;-97.880;2023-11-19T13:14:03;22.73;;;8.82;;
38879;SDS011;25887;30.194;-97.880;2023-11-19T14:18:19;24.92;;;9.48;;
38879;SDS011;25887;30.194;-97.880;2023-11-19T14:20:46;23.35;;;9.55;;
38879;SDS011;25887;30.194;-97.880;2023-11-19T14:23:13;26.42;;;10.32;;
38879;SDS011;25887;30.194;-97.880;2023-11-19T14:25:39;21.90;;;10.18;;
38879;SDS011;25887;30.194;-97.880;2023-11-19T14:28:07;22.38;;;9.45;;
38879;SDS011;25887;30.194;-97.880;2023-11-19T14:30:33;25.75;;;10.10;;
38879;SDS011;25887;30.194;-97.880;2023-11-19T14:33:00;26.73;;;10.15;;
38879;SDS011;25887;30.194;-97.880;2023-11-19T14:35:26;31.10;;;11.45;;
38879;SDS011;25887;30.194;-97.880;2023-11-19T14:37:52;32.60;;;11.60;;
38879;SDS011;25887;30.194;-97.880;2023-11-19T14:40:18;31.73;;;11.23;;
38879;SDS011;25887;30.194;-97.880;2023-11-19T14:42:45;30.88;;;11.68;;
38879;SDS011;25887;30.194;-97.880;2023-11-19T14:45:11;30.92;;;11.35;;
38879;SDS011;25887;30.194;-97.880;2023-11-19T14:47:40;30.30;;;11.93;;
38879;SDS011;25887;30.194;-97.880;2023-11-19T14:50:06;32.33;;;11.88;;
38879;SDS011;25887;30.194;-97.880;2023-11-19T14:52:34;32.40;;;10.93;;
38879;SDS011;25887;30.194;-97.880;2023-11-19T14:55:15;28.23;;;10.63;;
38879;SDS011;25887;30.194;-97.880;2023-11-19T14:57:41;29.15;;;10.85;;
38879;SDS011;25887;30.194;-97.880;2023-11-19T15:00:09;34.45;;;10.60;;
38879;SDS011;25887;30.194;-97.880;2023-11-19T15:02:39;32.13;;;10.90;;
38879;SDS011;25887;30.194;-97.880;2023-11-19T15:05:07;28.98;;;10.95;;
38879;SDS011;25887;30.194;-97.880;2023-11-19T15:07:35;26.73;;;10.18;;
38879;SDS011;25887;30.194;-97.880;2023-11-19T15:10:03;34.53;;;12.27;;
38879;SDS011;25887;30.194;-97.880;2023-11-19T15:12:35;30.63;;;10.10;;
38879;SDS011;25887;30.194;-97.880;2023-11-19T15:15:05;36.95;;;11.32;;
38879;SDS011;25887;30.194;-97.880;2023-11-19T15:17:35;30.70;;;10.20;;
38879;SDS011;25887;30.194;-97.880;2023-11-19T15:20:02;26.50;;;10.65;;
38879;SDS011;25887;30.194;-97.880;2023-11-19T15:22:31;32.95;;;10.15;;
38879;SDS011;25887;30.194;-97.880;2023-11-19T15:24:59;28.02;;;10.80;;
38879;SDS011;25887;30.194;-97.880;2023-11-19T15:27:33;29.95;;;11.05;;
38879;SDS011;25887;30.194;-97.880;2023-11-19T15:30:15;35.00;;;10.38;;
38879;SDS011;25887;30.194;-97.880;2023-11-19T15:32:44;26.67;;;10.88;;
38879;SDS011;25887;30.194;-97.880;2023-11-19T15:35:11;36.00;;;11.18;;
38879;SDS011;25887;30.194;-97.880;2023-11-19T15:37:37;31.00;;;10.93;;
38879;SDS011;25887;30.194;-97.880;2023-11-19T15:40:07;28.80;;;10.82;;
38879;SDS011;25887;30.194;-97.880;2023-11-19T15:42:34;24.85;;;9.73;;
38879;SDS011;25887;30.194;-97.880;2023-11-19T15:45:01;29.15;;;10.15;;
38879;SDS011;25887;30.194;-97.880;2023-11-19T15:47:31;24.25;;;10.00;;
38879;SDS011;25887;30.194;-97.880;2023-11-19T15:49:59;27.02;;;10.30;;
38879;SDS011;25887;30.194;-97.880;2023-11-19T15:52:26;25.80;;;10.32;;
38879;SDS011;25887;30.194;-97.880;2023-11-19T15:54:52;22.98;;;10.43;;
38879;SDS011;25887;30.194;-97.880;2023-11-19T15:57:19;20.33;;;9.52;;
38879;SDS011;25887;30.194;-97.880;2023-11-19T15:59:45;24.63;;;9.82;;
38879;SDS011;25887;30.194;-97.880;2023-11-19T16:02:11;24.52;;;9.75;;
38879;SDS011;25887;30.194;-97.880;2023-11-19T16:04:37;29.15;;;9.85;;
38879;SDS011;25887;30.194;-97.880;2023-11-19T16:07:04;20.02;;;8.95;;
38879;SDS011;25887;30.194;-97.880;2023-11-19T16:09:33;19.52;;;8.93;;
38879;SDS011;25887;30.194;-97.880;2023-11-19T16:12:00;22.30;;;9.50;;
38879;SDS011;25887;30.194;-97.880;2023-11-19T16:14:26;22.95;;;9.00;;
38879;SDS011;25887;30.194;-97.880;2023-11-19T16:16:52;21.25;;;9.88;;
38879;SDS011;25887;30.194;-97.880;2023-11-19T16:19:18;27.58;;;9.95;;
38879;SDS011;25887;30.194;-97.880;2023-11-19T16:27:40;22.33;;;9.75;;
38879;SDS011;25887;30.194;-97.880;2023-11-19T16:30:06;23.80;;;9.18;;
38879;SDS011;25887;30.194;-97.880;2023-11-19T16:32:33;18.58;;;8.23;;
38879;SDS011;25887;30.194;-97.880;2023-11-19T16:35:22;19.40;;;9.20;;
38879;SDS011;25887;30.194;-97.880;2023-11-19T16:41:06;20.73;;;8.90;;
38879;SDS011;25887;30.194;-97.880;2023-11-19T16:58:08;22.50;;;9.30;;
38879;SDS011;25887;30.194;-97.880;2023-11-19T17:01:20;31.05;;;9.45;;
38879;SDS011;25887;30.194;-97.880;2023-11-19T17:42:13;18.33;;;8.25;;
38879;SDS011;25887;30.194;-97.880;2023-11-19T17:44:39;19.30;;;8.40;;
38879;SDS011;25887;30.194;-97.880;2023-11-19T17:47:06;15.18;;;7.47;;
38879;SDS011;25887;30.194;-97.880;2023-11-19T17:49:34;17.90;;;7.95;;
38879;SDS011;25887;30.194;-97.880;2023-11-19T17:52:17;16.95;;;8.10;;
38879;SDS011;25887;30.194;-97.880;2023-11-19T17:54:55;16.23;;;8.43;;
38879;SDS011;25887;30.194;-97.880;2023-11-19T17:57:21;20.13;;;8.20;;
38879;SDS011;25887;30.194;-97.880;2023-11-19T19:56:41;7.88;;;4.70;;
38879;SDS011;25887;30.194;-97.880;2023-11-19T19:59:07;11.20;;;5.82;;
38879;SDS011;25887;30.194;-97.880;2023-11-19T20:01:34;9.90;;;5.75;;
38879;SDS011;25887;30.194;-97.880;2023-11-19T20:04:01;11.50;;;6.32;;
38879;SDS011;25887;30.194;-97.880;2023-11-19T20:06:36;10.52;;;5.55;;
38879;SDS011;25887;30.194;-97.880;2023-11-19T20:09:04;11.80;;;6.32;;
38879;SDS011;25887;30.194;-97.880;2023-11-19T20:11:31;11.88;;;6.50;;
38879;SDS011;25887;30.194;-97.880;2023-11-19T20:14:02;14.80;;;6.32;;
38879;SDS011;25887;30.194;-97.880;2023-11-19T20:16:31;12.07;;;6.50;;
38879;SDS011;25887;30.194;-97.880;2023-11-19T20:19:07;14.73;;;6.95;;
38879;SDS011;25887;30.194;-97.880;2023-11-19T20:22:04;14.05;;;7.05;;
38879;SDS011;25887;30.194;-97.880;2023-11-19T20:24:31;13.55;;;7.43;;
38879;SDS011;25887;30.194;-97.880;2023-11-19T20:27:12;14.60;;;7.53;;
38879;SDS011;25887;30.194;-97.880;2023-11-19T20:29:51;13.25;;;7.80;;
38879;SDS011;25887;30.194;-97.880;2023-11-19T20:32:18;14.25;;;7.97;;
38879;SDS011;25887;30.194;-97.880;2023-11-19T20:34:44;14.75;;;8.05;;
38879;SDS011;25887;30.194;-97.880;2023-11-19T20:37:11;15.30;;;7.75;;
38879;SDS011;25887;30.194;-97.880;2023-11-19T20:39:43;17.08;;;8.18;;
38879;SDS011;25887;30.194;-97.880;2023-11-19T20:42:17;17.52;;;8.85;;
38879;SDS011;25887;30.194;-97.880;2023-11-19T21:49:22;10.40;;;5.40;;
38879;SDS011;25887;30.194;-97.880;2023-11-19T21:51:54;10.40;;;5.03;;
38879;SDS011;25887;30.194;-97.880;2023-11-19T21:57:19;9.70;;;5.25;;
38879;SDS011;25887;30.194;-97.880;2023-11-19T21:59:47;9.10;;;4.88;;
38879;SDS011;25887;30.194;-97.880;2023-11-19T22:02:13;9.02;;;4.90;;
38879;SDS011;25887;30.194;-97.880;2023-11-19T22:04:41;11.65;;;5.57;;
38879;SDS011;25887;30.194;-97.880;2023-11-19T22:07:07;9.13;;;5.07;;
38879;SDS011;25887;30.194;-97.880;2023-11-19T22:09:34;11.13;;;5.88;;
38879;SDS011;25887;30.194;-97.880;2023-11-19T22:12:00;15.40;;;6.20;;
38879;SDS011;25887;30.194;-97.880;2023-11-19T22:14:26;12.15;;;5.88;;
38879;SDS011;25887;30.194;-97.880;2023-11-19T22:17:04;12.35;;;6.07;;
38879;SDS011;25887;30.194;-97.880;2023-11-19T22:19:30;14.68;;;5.93;;
38879;SDS011;25887;30.194;-97.880;2023-11-19T22:21:56;13.70;;;5.78;;